Latest Weather Observations for Goulburn Airport

IDN60901

Issued at 1:05 pm EST Sunday 20 April 2014 (issued every 10 minutes, with the page automatically refreshed every 10 minutes)

About weather observations | Map of Canberra area stations | Latest observations for Canberra area | Other Formats
Station Details ID: 070330 Name: GOULBURN AIRPORT AWS Lat: -34.81 Lon: 149.73 Height: 640.0 m
Data from the previous 72 hours. | See also: Recent months at Goulburn Airport
Date/Time
EST
Tmp

°C
App
Tmp
°C
Dew
Point
°C
Rel
Hum
%
Delta-T

°C
Wind Press
QNH
hPa
Press
MSL
hPa
Rain
since
9 am
mm
Dir
 
Spd
km/h
Gust
km/h
Spd
kts
Gust
kts
20/01:00pm 15.2 10.3 5.1 51 4.9 WNW 20 30 11 16 1016.8 - 0.0
20/12:30pm 14.9 8.9 5.1 52 4.8 NW 26 33 14 18 1017.1 - 0.0
20/12:00pm 14.9 10.2 6.2 56 4.3 NW 20 26 11 14 1017.5 1016.4 0.0
20/11:30am 14.3 9.9 6.4 59 3.9 W 19 30 10 16 1018.1 - 0.0
20/11:00am 13.7 8.7 6.3 61 3.7 W 22 30 12 16 1018.6 - 0.0
20/10:30am 12.5 7.3 5.4 62 3.4 W 22 30 12 16 1018.8 - 0.0
20/10:00am 12.6 6.8 6.4 66 3.1 W 26 35 14 19 1018.9 - 0.0
20/09:30am 11.5 6.8 6.2 70 2.6 WNW 20 33 11 18 1019.0 - 0.0
20/09:00am 9.5 5.9 6.9 84 1.3 NW 15 19 8 10 1019.2 1018.1 0.0
20/08:30am 7.9 5.0 6.5 91 0.7 NW 11 15 6 8 1019.2 - 0.0
20/08:00am 5.4 3.9 5.0 97 0.2 ENE 2 7 1 4 1019.1 - 0.0
20/07:30am 2.1 0.4 1.7 97 0.2 CALM 0 6 0 3 1018.9 - 0.0
20/07:00am 0.3 -1.7 -0.3 96 0.2 CALM 0 0 0 0 1018.7 - 0.0
20/06:30am 0.1 -2.0 -0.5 96 0.2 CALM 0 0 0 0 1018.5 - 0.0
20/06:23am -0.2 -2.3 -0.8 96 0.2 CALM 0 0 0 0 1018.4 - 0.0
20/06:00am 0.0 -2.1 -0.6 96 0.2 N 0 0 0 0 1018.3 1017.2 0.0
20/05:30am 0.5 -1.5 -0.1 96 0.2 CALM 0 0 0 0 1018.0 - 0.0
20/05:00am 0.8 -1.2 0.2 96 0.2 CALM 0 0 0 0 1017.9 - 0.0
20/04:30am 1.4 -0.5 0.8 96 0.2 CALM 0 0 0 0 1017.6 - 0.0
20/04:00am 1.7 -0.1 1.0 95 0.3 CALM 0 0 0 0 1017.8 - 0.0
20/03:44am 2.0 0.2 1.3 95 0.3 CALM 0 0 0 0 1017.7 - 0.0
20/03:30am 2.1 0.3 1.4 95 0.3 CALM 0 0 0 0 1017.7 - 0.0
20/03:00am 2.5 0.8 1.9 96 0.2 CALM 0 0 0 0 1017.7 1016.6 0.0
20/02:30am 2.4 0.6 1.5 94 0.4 CALM 0 0 0 0 1018.0 - 0.0
20/02:00am 2.5 0.7 1.5 93 0.4 CALM 0 0 0 0 1018.3 - 0.0
20/01:30am 3.6 2.0 2.6 93 0.4 CALM 0 0 0 0 1018.6 - 0.0
20/01:00am 4.5 3.1 3.8 95 0.3 CALM 0 0 0 0 1018.6 - 0.0
20/12:30am 4.9 3.6 4.2 95 0.3 CALM 0 0 0 0 1018.7 - 0.0
20/12:00am 4.8 3.4 3.8 93 0.4 CALM 0 0 0 0 1018.9 1017.8 0.0
 
Date/Time
EST
Tmp

°C
App
Tmp
°C
Dew
Point
°C
Rel
Hum
%
Delta-T

°C
Wind Press
QNH
hPa
Press
MSL
hPa
Rain
since
9 am
mm
Dir
 
Spd
km/h
Gust
km/h
Spd
kts
Gust
kts
19/11:30pm 4.9 3.6 3.9 93 0.4 CALM 0 0 0 0 1018.9 - 0.0
19/11:00pm 5.0 3.7 4.0 93 0.4 CALM 0 4 0 2 1018.9 - 0.0
19/10:30pm 4.7 2.0 3.8 94 0.4 N 7 9 4 5 1019.0 - 0.0
19/10:00pm 4.2 2.3 3.0 92 0.5 SSW 2 9 1 5 1019.1 - 0.0
19/09:30pm 4.2 2.7 2.9 91 0.6 CALM 0 0 0 0 1019.2 - 0.0
19/09:00pm 4.8 3.0 3.6 92 0.5 SE 2 6 1 3 1019.1 1018.0 0.0
19/08:30pm 4.1 1.7 2.3 88 0.7 SE 4 11 2 6 1019.0 - 0.0
19/08:00pm 5.8 4.5 4.0 88 0.8 CALM 0 0 0 0 1018.6 - 0.0
19/07:30pm 7.0 5.9 5.0 87 0.9 CALM 0 0 0 0 1018.1 - 0.0
19/07:00pm 6.7 4.7 4.4 85 1.0 W 4 7 2 4 1018.0 - 0.0
19/06:30pm 7.0 3.8 3.3 77 1.6 NW 9 13 5 7 1017.6 - 0.0
19/06:00pm 8.6 5.6 4.0 73 2.1 NW 9 11 5 6 1017.2 1016.1 0.0
19/05:30pm 10.9 8.0 4.8 66 2.9 W 9 9 5 5 1016.9 - 0.0
19/05:00pm 13.2 9.7 5.4 59 3.8 WNW 13 17 7 9 1016.8 - 0.0
19/04:30pm 14.4 10.8 5.2 54 4.5 WNW 13 17 7 9 1016.5 - 0.0
19/04:00pm 14.8 11.2 5.1 52 4.7 WNW 13 19 7 10 1016.4 - 0.0
19/03:30pm 14.7 11.0 4.7 51 4.8 W 13 22 7 12 1016.4 - 0.0
19/03:00pm 14.9 11.2 4.3 49 5.1 W 13 20 7 11 1016.2 1015.1 0.0
19/02:30pm 15.2 12.7 4.9 50 5.0 WSW 7 15 4 8 1016.2 - 0.0
19/02:00pm 15.0 11.6 5.8 54 4.6 WNW 13 19 7 10 1016.3 - 0.0
19/01:30pm 14.6 10.9 4.6 51 4.8 WNW 13 20 7 11 1016.3 - 0.0
19/01:00pm 14.3 12.1 5.1 54 4.5 NE 6 9 3 5 1016.5 - 0.0
19/12:30pm 14.4 11.4 6.0 57 4.2 NNW 11 17 6 9 1017.0 - 0.0
19/12:00pm 13.8 11.2 4.4 53 4.5 N 7 13 4 7 1017.4 1016.3 0.0
19/11:30am 12.8 9.7 3.5 53 4.3 SW 9 13 5 7 1017.7 - 0.0
19/11:00am 12.7 10.1 4.4 57 3.9 SW 7 13 4 7 1017.9 - 0.0
19/10:30am 12.3 9.8 4.5 59 3.7 S 7 15 4 8 1018.4 - 0.0
19/10:00am 11.8 9.4 4.5 61 3.4 S 6 11 3 6 1018.5 - 0.0
19/09:30am 11.6 8.7 4.8 63 3.2 SSW 9 15 5 8 1018.4 - 0.0
19/09:00am 10.2 7.2 3.9 65 2.9 S 9 13 5 7 1018.4 1017.3 0.0
19/08:30am 9.3 6.5 3.3 66 2.7 S 7 11 4 6 1018.3 - 0.0
19/08:00am 8.9 6.0 4.5 74 2.0 S 9 11 5 6 1017.9 - 0.0
19/07:30am 7.9 5.3 6.0 88 0.9 S 9 11 5 6 1017.9 - 0.0
19/07:00am 7.2 6.0 6.5 95 0.3 WSW 2 7 1 4 1017.6 - 0.0
19/06:59am 7.1 5.5 6.4 95 0.3 WSW 4 7 2 4 1017.6 - 0.0
19/06:44am 6.3 3.9 5.3 93 0.5 WSW 7 9 4 5 1017.5 - 0.0
19/06:30am 6.7 4.6 5.8 94 0.4 WSW 6 9 3 5 1017.2 - 0.0
19/06:00am 7.7 7.0 7.1 96 0.3 CALM 0 6 0 3 1017.0 1015.9 0.0
19/05:33am 7.8 7.2 7.2 96 0.3 CALM 0 6 0 3 1016.8 - 0.0
19/05:30am 7.8 7.2 7.4 97 0.2 CALM 0 0 0 0 1016.7 - 0.0
19/05:00am 7.6 7.0 7.2 97 0.2 CALM 0 0 0 0 1016.4 - 0.0
19/04:30am 6.4 5.1 5.8 96 0.3 SE 2 7 1 4 1016.2 - 0.0
19/04:10am 5.5 2.6 4.6 94 0.4 SE 9 11 5 6 1016.1 - 0.0
19/04:00am 5.9 3.4 4.9 93 0.5 SE 7 9 4 5 1016.1 - 0.0
19/03:30am 7.6 4.3 6.2 91 0.7 WNW 13 15 7 8 1015.8 - 0.0
19/03:00am 8.6 5.1 7.2 91 0.7 WNW 15 17 8 9 1015.8 1014.7 0.0
19/02:30am 7.8 4.6 6.7 93 0.5 W 13 15 7 8 1015.8 - 0.0
19/02:00am 7.8 5.8 6.1 89 0.8 WSW 6 7 3 4 1016.1 - 0.0
19/01:30am 8.5 5.5 6.1 85 1.1 NW 11 15 6 8 1016.0 - 0.0
19/01:00am 10.6 6.6 8.2 85 1.2 WNW 19 20 10 11 1015.9 - 0.0
19/12:30am 10.8 6.2 8.2 84 1.3 W 22 28 12 15 1015.7 - 0.0
19/12:00am 11.1 7.5 8.3 83 1.4 WNW 17 24 9 13 1015.9 1014.8 0.0
 
Date/Time
EST
Tmp

°C
App
Tmp
°C
Dew
Point
°C
Rel
Hum
%
Delta-T

°C
Wind Press
QNH
hPa
Press
MSL
hPa
Rain
since
9 am
mm
Dir
 
Spd
km/h
Gust
km/h
Spd
kts
Gust
kts
18/11:30pm 11.1 7.4 8.0 81 1.6 WNW 17 19 9 10 1015.8 - 0.0
18/11:00pm 11.1 7.1 8.1 82 1.5 WNW 19 20 10 11 1015.9 - 0.0
18/10:30pm 11.7 8.2 8.6 81 1.6 NW 17 19 9 10 1015.9 - 0.0
18/10:00pm 11.3 8.1 8.5 83 1.4 WNW 15 17 8 9 1016.0 - 0.0
18/09:30pm 11.6 8.4 8.3 80 1.7 WNW 15 17 8 9 1016.2 - 0.0
18/09:00pm 12.5 9.1 9.1 80 1.8 WNW 17 19 9 10 1016.1 1015.0 0.0
18/08:30pm 11.1 8.7 8.5 84 1.3 WNW 11 13 6 7 1016.2 - 0.0
18/08:00pm 12.0 8.9 9.0 82 1.6 NW 15 19 8 10 1015.9 - 0.0
18/07:30pm 12.1 9.7 8.8 80 1.7 NW 11 13 6 7 1015.9 - 0.0
18/07:00pm 13.2 9.7 8.9 75 2.2 WNW 17 24 9 13 1015.5 - 0.0
18/06:30pm 13.1 9.1 9.0 76 2.1 WNW 20 26 11 14 1015.4 - 0.0
18/06:00pm 13.9 9.2 9.1 73 2.5 W 24 32 13 17 1015.1 1013.9 0.0
18/05:30pm 14.9 10.6 9.3 69 3.0 W 22 30 12 16 1015.1 - 0.0
18/05:00pm 15.3 10.2 9.2 67 3.2 W 26 37 14 20 1014.8 - 0.0
18/04:30pm 16.2 10.6 8.9 62 3.9 W 28 35 15 19 1014.7 - 0.0
18/04:00pm 16.5 9.8 8.2 58 4.4 W 33 44 18 24 1014.6 - 0.0
18/03:30pm 17.1 10.3 7.5 53 5.0 W 33 46 18 25 1014.6 - 0.0
18/03:00pm 17.6 11.2 8.5 55 4.8 W 32 44 17 24 1014.7 1013.6 0.0
18/02:30pm 17.0 10.2 7.9 55 4.8 W 33 48 18 26 1014.8 - 0.0
18/02:00pm 16.5 10.4 8.2 58 4.4 W 30 44 16 24 1015.1 - 0.0
18/01:30pm 16.3 10.5 7.8 57 4.4 W 28 37 15 20 1015.3 - 0.0
18/01:00pm 17.8 11.6 9.4 58 4.5 W 32 41 17 22 1015.6 - 0.0
18/12:30pm 16.5 10.1 8.7 60 4.1 W 32 41 17 22 1015.9 - 0.0
18/12:00pm 16.8 11.7 9.2 61 4.1 W 26 35 14 19 1016.2 1015.1 0.0
18/11:30am 16.9 11.6 9.8 63 3.9 WSW 28 37 15 20 1016.7 - 0.0
18/11:00am 16.4 10.5 9.1 62 3.9 W 30 37 16 20 1016.9 - 0.0
18/10:30am 16.6 12.7 9.3 62 3.9 W 20 33 11 18 1017.3 - 0.0
18/10:00am 15.6 9.8 9.5 67 3.3 W 30 35 16 19 1017.4 - 0.0
18/09:30am 14.6 11.3 9.4 71 2.8 WNW 17 24 9 13 1017.8 - 0.0
18/09:00am 12.5 10.7 9.3 81 1.7 WNW 9 11 5 6 1018.0 1017.0 0.2
18/08:30am 10.9 8.2 8.8 87 1.1 WNW 13 19 7 10 1018.1 - 0.2
18/08:00am 7.4 5.6 7.1 98 0.1 N 6 7 3 4 1018.1 - 0.2
18/07:30am 5.4 3.9 5.1 98 0.1 WNW 2 6 1 3 1018.0 - 0.2
18/07:00am 3.0 1.4 2.6 97 0.2 CALM 0 0 0 0 1018.3 - 0.2
18/06:30am 2.2 0.5 1.8 97 0.2 CALM 0 0 0 0 1018.1 - 0.2
18/06:25am 2.1 0.4 1.7 97 0.2 CALM 0 0 0 0 1018.1 - 0.2
18/06:00am 2.7 1.1 2.3 97 0.2 CALM 0 0 0 0 1018.1 1017.1 0.2
18/05:30am 2.2 0.5 1.8 97 0.2 CALM 0 0 0 0 1018.0 - 0.2
18/05:00am 2.5 0.8 2.1 97 0.2 CALM 0 0 0 0 1018.1 - 0.2
18/04:55am 2.8 1.2 2.4 97 0.2 CALM 0 0 0 0 1018.3 - 0.2
18/04:30am 2.4 0.7 1.8 96 0.2 CALM 0 0 0 0 1018.4 - 0.2
18/04:13am 2.6 1.0 2.2 97 0.2 CALM 0 0 0 0 1018.4 - 0.2
18/04:00am 2.6 1.0 2.2 97 0.2 CALM 0 0 0 0 1018.4 - 0.2
18/03:30am 3.1 1.5 2.7 97 0.2 CALM 0 0 0 0 1018.5 - 0.2
18/03:00am 3.3 1.8 2.9 97 0.2 CALM 0 0 0 0 1018.7 1017.6 0.2
18/02:30am 3.2 1.6 2.6 96 0.2 CALM 0 0 0 0 1018.9 - 0.2
18/02:00am 3.3 1.7 2.7 96 0.3 CALM 0 2 0 1 1019.3 - 0.2
18/01:30am 3.4 1.9 2.8 96 0.3 CALM 0 0 0 0 1019.6 - 0.2
18/01:00am 4.2 2.8 3.6 96 0.3 CALM 0 0 0 0 1019.8 - 0.2
18/12:30am 3.8 1.2 3.1 95 0.3 ESE 6 7 3 4 1020.0 - 0.2
18/12:18am 4.1 1.5 3.4 95 0.3 SE 6 7 3 4 1020.0 - 0.2
18/12:00am 4.6 2.5 4.0 96 0.3 SSE 4 7 2 4 1020.3 1019.2 0.2
 
Date/Time
EST
Tmp

°C
App
Tmp
°C
Dew
Point
°C
Rel
Hum
%
Delta-T

°C
Wind Press
QNH
hPa
Press
MSL
hPa
Rain
since
9 am
mm
Dir
 
Spd
km/h
Gust
km/h
Spd
kts
Gust
kts
17/11:30pm 4.8 3.5 4.1 95 0.3 CALM 0 0 0 0 1020.5 - 0.2
17/11:00pm 5.1 3.8 4.1 93 0.4 CALM 0 0 0 0 1020.7 - 0.2
17/10:30pm 5.9 4.7 4.7 92 0.5 CALM 0 0 0 0 1021.1 - 0.2
17/10:00pm 6.3 4.5 5.3 93 0.5 SSE 4 6 2 3 1021.4 - 0.2
17/09:30pm 6.9 4.8 5.7 92 0.6 WSW 6 9 3 5 1021.4 - 0.2
17/09:00pm 7.8 5.8 6.4 91 0.7 WSW 6 9 3 5 1021.2 1020.2 0.2
17/08:30pm 7.9 5.6 5.7 86 1.0 SSW 7 9 4 5 1021.1 - 0.2
17/08:00pm 10.9 10.5 8.1 83 1.4 CALM 0 0 0 0 1020.9 - 0.2
17/07:30pm 10.5 8.7 7.2 80 1.6 ESE 6 9 3 5 1020.7 - 0.2
17/07:00pm 11.4 9.4 6.9 74 2.2 SE 7 11 4 6 1020.3 - 0.2
17/06:30pm 11.0 10.1 7.7 80 1.7 SSW 2 6 1 3 1019.8 - 0.2
17/06:00pm 11.2 7.9 6.5 73 2.3 WNW 13 15 7 8 1019.7 1018.7 0.2
17/05:30pm 13.8 10.7 7.1 64 3.4 WNW 13 15 7 8 1019.7 - 0.2
17/05:00pm 16.9 14.2 7.3 53 5.0 WSW 11 13 6 7 1019.5 - 0.2
17/04:30pm 17.8 15.7 6.7 48 5.7 SSW 7 9 4 5 1019.4 - 0.2
17/04:00pm 16.1 13.5 7.6 57 4.4 SW 11 17 6 9 1019.4 - 0.2
17/03:30pm 16.9 14.8 8.1 56 4.6 S 9 11 5 6 1019.3 - 0.2
17/03:00pm 17.9 14.4 5.5 44 6.2 SSW 13 19 7 10 1019.4 1018.4 0.2
17/02:30pm 18.6 15.2 6.1 44 6.4 SSW 13 19 7 10 1019.6 - 0.2
17/02:00pm 18.4 16.0 6.9 47 6.0 SW 9 20 5 11 1019.7 - 0.2
17/01:30pm 18.1 16.2 7.5 50 5.5 W 7 13 4 7 1020.0 - 0.2

Latest Capital City Observations: Canberra | Sydney | Melbourne | Brisbane | Adelaide | Perth | Hobart | Darwin

Other Formats:

Comma delimited format used in spreadsheet applications
http://www.bom.gov.au/fwo/IDN60903/IDN60903.95716.axf

JavaScript Object Notation format (JSON) in row-major order
http://www.bom.gov.au/fwo/IDN60903/IDN60903.95716.json